Latest Weather Observations for Telfer

IDW60801

Issued at 8:05 am WST Tuesday 23 September 2014 (issued every 30 minutes, with the page automatically refreshed every 10 minutes)

About weather observations | Map of weather stations | Latest weather observations for WA | Other Formats
Station Details ID: 013030 Name: TELFER AERO Lat: -21.71 Lon: 122.23 Height: 291.9 m
Data from the previous 72 hours. | See also: Recent months at Telfer
Date/Time
WST
Temp
°C
App
Temp
°C
Dew
Point
Rel
Hum
%
Delta-T
°C
Wind Press
QNH
hPa
Press
MSL
hPa
Rain
since 9 am
mm
Dir
 
Spd
km/h
Gust
km/h
Spd
kts
Gust
kts
23/08:00am 17.7 7.8 1.7 34 7.3 SSE 43 54 23 29 1020.7 1019.2 0.0
23/07:30am 17.1 8.0 1.9 36 6.9 SSE 39 52 21 28 1020.5 1019.0 0.0
23/07:00am 16.0 7.5 1.0 36 6.6 SSE 35 48 19 26 1020.0 1018.6 0.0
23/06:30am 14.9 8.4 0.0 36 6.4 SSE 24 32 13 17 1019.4 1018.0 0.0
23/06:00am 14.1 8.2 -0.7 36 6.2 SSE 20 24 11 13 1019.1 1017.7 0.0
23/05:30am 14.5 7.9 -0.4 36 6.3 SSE 24 32 13 17 1018.7 1017.3 0.0
23/05:00am 15.0 8.4 -0.3 35 6.5 SSE 24 33 13 18 1018.4 1017.0 0.0
23/04:30am 15.3 8.7 -0.4 34 6.7 S 24 30 13 16 1018.2 1016.7 0.0
23/04:00am 15.7 8.7 -0.5 33 6.9 SSE 26 35 14 19 1017.8 1016.3 0.0
23/03:30am 16.0 8.6 -0.7 32 7.1 SSE 28 39 15 21 1017.6 1016.1 0.0
23/03:00am 16.4 9.1 -0.3 32 7.2 SSE 28 37 15 20 1017.3 1015.8 0.0
23/02:30am 17.0 8.7 -0.2 31 7.5 SSE 33 44 18 24 1017.3 1015.8 0.0
23/02:00am 17.3 11.1 2.1 36 6.9 SSE 24 32 13 17 1017.3 1015.8 0.0
23/01:30am 18.2 11.2 1.7 33 7.5 SSE 28 39 15 21 1017.3 1015.8 0.0
23/01:00am 19.2 10.7 0.8 29 8.3 SSE 35 46 19 25 1017.1 1015.6 0.0
23/12:30am 19.9 13.0 0.4 27 8.8 S 26 39 14 21 1017.1 1015.6 0.0
23/12:00am 20.4 14.4 0.8 27 8.9 S 22 32 12 17 1017.2 1015.7 0.0
 
Date/Time
WST
Temp
°C
App
Temp
°C
Dew
Point
Rel
Hum
%
Delta-T
°C
Wind Press
QNH
hPa
Press
MSL
hPa
Rain
since 9 am
mm
Dir
 
Spd
km/h
Gust
km/h
Spd
kts
Gust
kts
22/11:30pm 21.1 13.6 0.9 26 9.3 S 30 39 16 21 1017.3 1015.8 0.0
22/11:00pm 21.5 14.7 0.7 25 9.6 S 26 35 14 19 1017.4 1015.9 0.0
22/10:30pm 22.4 14.2 0.3 23 10.2 S 33 50 18 27 1017.1 1015.6 0.0
22/10:10pm 22.7 14.1 -0.1 22 10.4 S 35 54 19 29 1016.9 1015.4 0.0
22/10:00pm 23.1 13.7 0.2 22 10.6 S 39 54 21 29 1016.5 1015.1 0.0
22/09:46pm 23.4 15.3 -0.1 21 10.8 SSW 32 50 17 27 1016.4 1015.0 0.0
22/09:30pm 23.9 15.8 -0.4 20 11.2 SSW 32 46 17 25 1016.3 1014.9 0.0
22/09:15pm 24.1 16.3 -0.9 19 11.4 SSW 30 48 16 26 1016.3 1014.9 0.0
22/09:00pm 24.5 16.3 -1.3 18 11.7 SSW 32 43 17 23 1016.3 1014.9 0.0
22/08:30pm 25.0 17.6 -0.9 18 11.9 SSW 28 39 15 21 1016.1 1014.7 0.0
22/08:00pm 25.6 18.8 -2.1 16 12.5 SSW 24 35 13 19 1015.7 1014.3 0.0
22/07:30pm 26.1 18.8 -2.5 15 12.9 SSW 26 39 14 21 1015.1 1013.6 0.0
22/07:00pm 26.9 19.6 -2.8 14 13.4 SSW 26 43 14 23 1014.7 1013.2 0.0
22/06:30pm 28.1 19.6 -2.9 13 14.1 SW 32 48 17 26 1014.1 1012.6 0.0
22/06:00pm 28.9 21.0 -1.2 14 14.2 SW 30 39 16 21 1013.6 1012.1 0.0
22/05:30pm 30.0 22.6 -0.4 14 14.6 WSW 28 39 15 21 1013.2 1011.7 0.0
22/05:00pm 31.0 24.3 1.4 15 14.8 WSW 26 33 14 18 1012.8 1011.4 0.0
22/04:30pm 31.4 24.4 1.7 15 14.9 WSW 28 37 15 20 1012.5 1011.1 0.0
22/04:00pm 32.0 26.0 3.1 16 14.9 W 24 39 13 21 1012.5 1011.1 0.0
22/03:30pm 31.9 25.1 3.0 16 14.9 W 28 41 15 22 1012.4 1011.0 0.0
22/03:00pm 31.7 26.7 4.5 18 14.4 WSW 20 33 11 18 1012.5 1011.1 0.0
22/02:30pm 32.2 26.7 5.7 19 14.3 WSW 24 35 13 19 1012.7 1011.3 0.0
22/02:00pm 30.5 25.9 6.4 22 13.0 SW 20 32 11 17 1013.2 1011.7 0.0
22/01:30pm 30.9 24.7 6.0 21 13.4 WSW 28 37 15 20 1013.5 1012.0 0.0
22/01:00pm 30.1 26.2 7.3 24 12.5 WSW 17 28 9 15 1014.0 1012.5 0.0
22/12:30pm 30.4 26.3 8.7 26 12.2 WSW 20 35 11 19 1014.4 1012.9 0.0
22/12:00pm 29.9 25.7 9.9 29 11.4 SSW 22 39 12 21 1014.6 1013.1 0.0
22/11:30am 29.2 25.7 10.8 32 10.6 SSW 20 35 11 19 1015.3 1013.9 0.0
22/11:00am 29.2 25.8 11.3 33 10.4 SSW 20 35 11 19 1015.8 1014.4 0.0
22/10:30am 28.3 24.7 11.8 36 9.6 SSW 22 33 12 18 1016.2 1014.8 0.0
22/10:00am 28.8 25.3 12.2 35 9.8 S 22 28 12 15 1016.4 1015.0 0.0
22/09:30am 27.5 23.7 12.3 39 8.9 S 24 35 13 19 1016.5 1015.1 0.0
22/09:00am 27.3 23.3 11.7 37 9.1 S 24 33 13 18 1017.1 1015.6 0.0
22/08:30am 27.0 21.9 10.7 36 9.3 SSE 28 35 15 19 1017.0 1015.5 0.0
22/08:00am 26.8 21.9 10.1 35 9.4 S 26 30 14 16 1016.9 1015.4 0.0
22/07:30am 26.6 22.0 8.1 31 10.1 SSE 22 30 12 16 1016.6 1015.2 0.0
22/07:00am 25.8 22.0 5.9 28 10.4 ESE 15 19 8 10 1016.2 1014.8 0.0
22/06:30am 25.2 20.1 5.9 29 10.0 SE 22 28 12 15 1015.2 1013.7 0.0
22/06:03am 25.3 18.3 6.0 29 10.1 SW 32 50 17 27 1013.5 1012.0 0.0
22/06:00am 25.1 18.0 5.3 28 10.2 SW 32 46 17 25 1013.4 1011.9 0.0
22/05:30am 25.8 18.5 4.3 25 10.9 SW 32 48 17 26 1012.9 1011.5 0.0
22/05:26am 25.9 19.0 4.4 25 10.9 SW 30 48 16 26 1012.9 1011.5 0.0
22/05:00am 26.8 18.9 4.6 24 11.4 WSW 35 48 19 26 1012.6 1011.2 0.0
22/04:30am 27.4 20.1 4.5 23 11.8 WSW 32 41 17 22 1012.2 1010.8 0.0
22/04:00am 27.6 21.3 4.0 22 12.1 WSW 26 35 14 19 1012.0 1010.5 0.0
22/03:30am 28.3 22.0 3.9 21 12.5 WSW 26 35 14 19 1011.8 1010.3 0.0
22/03:00am 28.3 23.2 3.9 21 12.5 WSW 20 28 11 15 1011.8 1010.3 0.0
22/02:30am 29.2 22.9 3.9 20 13.0 W 26 37 14 20 1011.9 1010.4 0.0
22/02:00am 29.5 23.2 3.5 19 13.3 W 26 33 14 18 1012.1 1010.6 0.0
22/01:30am 29.7 24.5 3.6 19 13.4 W 20 26 11 14 1012.2 1010.8 0.0
22/01:00am 28.9 23.6 3.0 19 13.1 W 20 24 11 13 1012.5 1011.1 0.0
22/12:30am 28.8 22.6 2.1 18 13.3 W 24 30 13 16 1012.7 1011.3 0.0
22/12:00am 27.4 22.5 1.8 19 12.6 WNW 17 24 9 13 1013.0 1011.6 0.0
 
Date/Time
WST
Temp
°C
App
Temp
°C
Dew
Point
Rel
Hum
%
Delta-T
°C
Wind Press
QNH
hPa
Press
MSL
hPa
Rain
since 9 am
mm
Dir
 
Spd
km/h
Gust
km/h
Spd
kts
Gust
kts
21/11:30pm 27.7 22.6 0.5 17 13.1 NW 17 20 9 11 1013.2 1011.7 0.0
21/11:00pm 25.6 23.9 1.7 21 11.6 CALM 0 0 0 0 1013.0 1011.6 0.0
21/10:30pm 27.3 24.3 1.7 19 12.5 N 7 9 4 5 1013.3 1011.8 0.0
21/10:00pm 27.0 23.5 1.4 19 12.4 NNW 9 13 5 7 1013.5 1012.0 0.0
21/09:30pm 29.6 25.2 0.2 15 14.2 W 13 13 7 7 1013.6 1012.1 0.0
21/09:00pm 30.2 25.9 0.7 15 14.5 WNW 13 15 7 8 1013.6 1012.1 0.0
21/08:30pm 31.0 27.4 0.4 14 15.0 WNW 9 9 5 5 1013.6 1012.1 0.0
21/08:00pm 31.5 27.4 -0.2 13 15.5 W 11 11 6 6 1013.5 1012.0 0.0
21/07:30pm 31.7 27.2 -0.1 13 15.5 WNW 13 15 7 8 1013.3 1011.8 0.0
21/07:00pm 32.1 28.1 0.2 13 15.7 WNW 11 15 6 8 1013.0 1011.6 0.0
21/06:30pm 33.6 29.0 -0.9 11 16.9 W 13 15 7 8 1012.7 1011.3 0.0
21/06:00pm 34.4 30.3 -0.3 11 17.2 WNW 11 15 6 8 1012.5 1011.1 0.0
21/05:30pm 35.9 32.1 -0.5 10 18.2 WNW 9 13 5 7 1012.2 1010.8 0.0
21/05:00pm 36.4 31.6 -0.1 10 18.4 NW 15 20 8 11 1012.0 1010.5 0.0
21/04:30pm 37.4 33.6 -0.8 9 19.2 SW 9 15 5 8 1011.8 1010.3 0.0
21/04:00pm 37.0 32.8 -1.1 9 19.0 WNW 11 20 6 11 1011.9 1010.4 0.0
21/03:30pm 38.0 34.3 -0.3 9 19.4 W 9 19 5 10 1012.1 1010.6 0.0
21/03:00pm 37.5 33.7 -0.7 9 19.2 N 9 24 5 13 1012.3 1010.9 0.0
21/02:30pm 37.2 32.6 -0.9 9 19.0 N 13 24 7 13 1012.7 1011.3 0.0
21/02:00pm 37.9 33.4 -0.4 9 19.4 N 13 30 7 16 1012.9 1011.5 0.0
21/01:30pm 37.4 33.6 -0.8 9 19.2 W 9 17 5 9 1013.5 1012.0 0.0
21/01:00pm 37.1 32.5 -1.0 9 19.0 W 13 20 7 11 1014.0 1012.5 0.0
21/12:30pm 37.1 31.4 -1.0 9 19.0 WSW 19 24 10 13 1014.4 1012.9 0.0
21/12:00pm 36.9 31.9 -1.1 9 18.9 SSW 15 20 8 11 1014.9 1013.4 0.0
21/11:30am 36.3 32.2 -0.2 10 18.3 S 11 17 6 9 1015.3 1013.9 0.0
21/11:00am 34.7 30.6 -0.1 11 17.3 SW 11 15 6 8 1015.9 1014.5 0.0
21/10:30am 33.9 30.3 0.5 12 16.7 SSW 9 13 5 7 1016.4 1015.0 0.0
21/10:00am 33.3 30.0 0.1 12 16.4 S 7 13 4 7 1016.8 1015.3 0.0
21/09:30am 32.2 28.9 0.3 13 15.8 E 7 13 4 7 1017.0 1015.5 0.0
21/09:00am 31.0 26.2 0.4 14 15.0 E 15 20 8 11 1016.9 1015.4 0.0
21/08:30am 30.0 25.3 0.6 15 14.4 ESE 15 20 8 11 1016.9 1015.4 0.0
21/08:00am 28.7 24.6 2.1 18 13.2 ESE 13 17 7 9 1016.9 1015.4 0.0
21/07:30am 27.1 23.3 1.5 19 12.5 SE 11 15 6 8 1016.5 1015.1 0.0
21/07:00am 25.6 21.9 2.3 22 11.4 SSE 11 13 6 7 1016.2 1014.8 0.0
21/06:30am 23.1 19.5 0.9 23 10.4 SE 9 11 5 6 1015.9 1014.5 0.0
21/06:00am 21.1 15.6 0.9 26 9.3 SE 19 24 10 13 1015.6 1014.2 0.0
21/05:30am 22.8 18.9 1.2 24 10.1 SW 11 13 6 7 1014.8 1013.3 0.0
21/05:00am 21.6 18.5 1.3 26 9.5 WNW 7 13 4 7 1014.6 1013.1 0.0
21/04:30am 20.7 18.1 1.1 27 9.0 SE 4 9 2 5 1014.2 1012.7 0.0
21/04:00am 21.5 18.3 0.7 25 9.6 SSE 7 9 4 5 1014.0 1012.5 0.0
21/03:30am 22.3 19.2 1.3 25 9.8 SW 7 9 4 5 1013.9 1012.4 0.0
21/03:00am 22.4 20.6 0.9 24 10.0 CALM 0 2 0 1 1013.9 1012.4 0.0
21/02:30am 23.2 20.3 1.5 24 10.3 SW 6 9 3 5 1014.0 1012.5 0.0
21/02:00am 25.4 22.8 0.8 20 11.7 SW 4 7 2 4 1014.2 1012.7 0.0
21/01:30am 29.0 24.8 -1.2 14 14.2 SSW 11 17 6 9 1014.3 1012.8 0.0
21/01:00am 28.2 23.7 0.0 16 13.5 WSW 13 17 7 9 1014.4 1012.9 0.0
21/12:30am 25.3 22.5 2.1 22 11.3 S 6 9 3 5 1014.8 1013.3 0.0
21/12:00am 25.6 22.6 1.7 21 11.6 SE 7 9 4 5 1015.1 1013.6 0.0
 
Date/Time
WST
Temp
°C
App
Temp
°C
Dew
Point
Rel
Hum
%
Delta-T
°C
Wind Press
QNH
hPa
Press
MSL
hPa
Rain
since 9 am
mm
Dir
 
Spd
km/h
Gust
km/h
Spd
kts
Gust
kts
20/11:30pm 28.9 24.0 -0.3 15 14.0 S 15 17 8 9 1015.3 1013.9 0.0
20/11:00pm 25.8 24.2 2.5 22 11.4 CALM 0 0 0 0 1015.6 1014.2 0.0
20/10:30pm 28.0 24.8 0.7 17 13.2 S 7 11 4 6 1015.8 1014.4 0.0
20/10:00pm 28.8 25.2 0.5 16 13.7 SW 9 11 5 6 1015.9 1014.5 0.0
20/09:30pm 32.2 28.6 0.3 13 15.8 SW 9 13 5 7 1016.1 1014.7 0.0
20/09:00pm 31.0 27.7 0.4 14 15.0 SW 7 9 4 5 1016.1 1014.7 0.0
20/08:30pm 30.6 27.1 1.0 15 14.6 SW 9 11 5 6 1016.0 1014.6 0.0
20/08:00pm 31.4 27.8 0.7 14 15.2 SSW 9 11 5 6 1015.7 1014.3 0.0
20/07:30pm 31.2 27.6 0.6 14 15.1 S 9 15 5 8 1015.3 1013.9 0.0
20/07:00pm 32.3 28.5 -0.7 12 16.0 W 9 13 5 7 1014.9 1013.4 0.0
20/06:30pm 32.5 29.1 -0.5 12 16.1 W 7 9 4 5 1014.6 1013.1 0.0
20/06:00pm 33.7 30.6 0.4 12 16.6 WNW 6 7 3 4 1014.2 1012.7 0.0
20/05:30pm 35.2 31.0 -1.0 10 17.8 W 11 19 6 10 1013.8 1012.3 0.0
20/05:00pm 35.7 32.5 -0.6 10 18.1 SE 6 9 3 5 1013.5 1012.0 0.0
20/04:30pm 36.3 33.0 -0.2 10 18.3 WSW 7 17 4 9 1013.3 1011.8 0.0
20/04:00pm 36.4 33.3 -0.1 10 18.4 E 6 9 3 5 1013.2 1011.7 0.0
20/03:30pm 36.7 33.0 0.1 10 18.5 NNE 9 17 5 9 1013.0 1011.6 0.0
20/03:00pm 36.1 31.2 -0.3 10 18.3 SSE 15 24 8 13 1013.0 1011.6 0.0
20/02:30pm 36.2 31.7 -0.2 10 18.3 NW 13 20 7 11 1013.2 1011.7 0.0
20/02:00pm 36.3 31.8 -0.2 10 18.4 SSW 13 22 7 12 1013.5 1012.0 0.0
20/01:30pm 37.4 33.8 0.7 10 18.8 SSW 9 11 5 6 1013.9 1012.4 0.0
20/01:00pm 36.2 32.5 -0.2 10 18.3 NW 9 15 5 8 1014.3 1012.8 0.0
20/12:30pm 35.8 31.3 -0.5 10 18.1 WNW 13 22 7 12 1014.8 1013.3 0.0
20/12:00pm 35.8 31.3 -0.5 10 18.1 WNW 13 20 7 11 1015.3 1013.9 0.0
20/11:30am 35.0 31.0 0.2 11 17.5 SSE 11 19 6 10 1015.9 1014.5 0.0
20/11:00am 34.9 30.5 0.1 11 17.4 SSE 13 20 7 11 1016.3 1014.9 0.0
20/10:30am 34.6 30.3 1.1 12 17.0 S 13 19 7 10 1016.5 1015.1 0.0
20/10:00am 34.1 29.8 0.7 12 16.8 SSE 13 22 7 12 1017.0 1015.5 0.0
20/09:30am 33.1 28.4 1.0 13 16.1 SSE 15 20 8 11 1017.0 1015.5 0.0
20/09:00am 32.9 28.2 0.9 13 16.0 S 15 20 8 11 1017.2 1015.7 0.0
20/08:30am 31.2 27.0 1.5 15 14.9 SSW 13 17 7 9 1017.1 1015.6 0.0

Other Formats:

Comma delimited format used in spreadsheet applications
http://www.bom.gov.au/fwo/IDW60801/IDW60801.94319.axf

JavaScript Object Notation format (JSON) in row-major order
http://www.bom.gov.au/fwo/IDW60801/IDW60801.94319.json